sensor_id;sensor_type;location;lat;lon;timestamp;P1;durP1;ratioP1;P2;durP2;ratioP2
40322;SDS011;26030;51.164;17.100;2023-07-13T00:04:16;5.90;;;4.60;;
40322;SDS011;26030;51.164;17.100;2023-07-13T00:09:22;5.10;;;4.70;;
40322;SDS011;26030;51.164;17.100;2023-07-13T00:14:28;5.30;;;4.50;;
40322;SDS011;26030;51.164;17.100;2023-07-13T00:19:32;5.00;;;4.50;;
40322;SDS011;26030;51.164;17.100;2023-07-13T00:24:36;5.90;;;4.70;;
40322;SDS011;26030;51.164;17.100;2023-07-13T00:29:45;6.80;;;4.30;;
40322;SDS011;26030;51.164;17.100;2023-07-13T00:34:49;5.00;;;4.60;;
40322;SDS011;26030;51.164;17.100;2023-07-13T00:39:54;5.00;;;4.50;;
40322;SDS011;26030;51.164;17.100;2023-07-13T00:50:18;5.10;;;3.80;;
40322;SDS011;26030;51.164;17.100;2023-07-13T00:55:23;5.00;;;4.50;;
40322;SDS011;26030;51.164;17.100;2023-07-13T01:00:29;6.30;;;4.70;;
40322;SDS011;26030;51.164;17.100;2023-07-13T01:05:34;4.90;;;4.30;;
40322;SDS011;26030;51.164;17.100;2023-07-13T01:10:39;4.60;;;4.10;;
40322;SDS011;26030;51.164;17.100;2023-07-13T01:15:48;6.30;;;4.30;;
40322;SDS011;26030;51.164;17.100;2023-07-13T01:20:56;4.10;;;3.80;;
40322;SDS011;26030;51.164;17.100;2023-07-13T01:26:01;6.70;;;5.70;;
40322;SDS011;26030;51.164;17.100;2023-07-13T01:31:05;7.70;;;6.20;;
40322;SDS011;26030;51.164;17.100;2023-07-13T01:36:11;6.50;;;5.60;;
40322;SDS011;26030;51.164;17.100;2023-07-13T01:41:16;6.10;;;5.00;;
40322;SDS011;26030;51.164;17.100;2023-07-13T01:46:22;5.90;;;5.40;;
40322;SDS011;26030;51.164;17.100;2023-07-13T01:51:27;5.20;;;4.70;;
40322;SDS011;26030;51.164;17.100;2023-07-13T01:56:31;6.50;;;5.80;;
40322;SDS011;26030;51.164;17.100;2023-07-13T02:01:36;5.20;;;4.70;;
40322;SDS011;26030;51.164;17.100;2023-07-13T02:06:40;4.90;;;4.50;;
40322;SDS011;26030;51.164;17.100;2023-07-13T02:11:45;5.00;;;4.50;;
40322;SDS011;26030;51.164;17.100;2023-07-13T02:16:49;6.50;;;4.40;;
40322;SDS011;26030;51.164;17.100;2023-07-13T02:21:53;8.00;;;4.70;;
40322;SDS011;26030;51.164;17.100;2023-07-13T02:26:57;7.50;;;4.80;;
40322;SDS011;26030;51.164;17.100;2023-07-13T02:32:02;6.60;;;5.10;;
40322;SDS011;26030;51.164;17.100;2023-07-13T02:37:06;9.60;;;5.30;;
40322;SDS011;26030;51.164;17.100;2023-07-13T02:42:11;6.70;;;5.30;;
40322;SDS011;26030;51.164;17.100;2023-07-13T02:47:15;5.30;;;4.70;;
40322;SDS011;26030;51.164;17.100;2023-07-13T02:52:19;7.10;;;4.80;;
40322;SDS011;26030;51.164;17.100;2023-07-13T02:57:24;6.70;;;5.00;;
40322;SDS011;26030;51.164;17.100;2023-07-13T03:02:28;4.90;;;4.50;;
40322;SDS011;26030;51.164;17.100;2023-07-13T03:07:32;6.10;;;4.70;;
40322;SDS011;26030;51.164;17.100;2023-07-13T03:12:37;5.20;;;4.70;;
40322;SDS011;26030;51.164;17.100;2023-07-13T03:17:43;7.50;;;4.90;;
40322;SDS011;26030;51.164;17.100;2023-07-13T03:22:48;5.00;;;4.50;;
40322;SDS011;26030;51.164;17.100;2023-07-13T03:27:53;5.00;;;4.50;;
40322;SDS011;26030;51.164;17.100;2023-07-13T03:32:57;6.90;;;4.30;;
40322;SDS011;26030;51.164;17.100;2023-07-13T03:38:02;5.90;;;4.80;;
40322;SDS011;26030;51.164;17.100;2023-07-13T03:43:07;5.20;;;4.70;;
40322;SDS011;26030;51.164;17.100;2023-07-13T03:48:11;7.00;;;5.10;;
40322;SDS011;26030;51.164;17.100;2023-07-13T03:53:16;6.40;;;5.10;;
40322;SDS011;26030;51.164;17.100;2023-07-13T03:58:33;5.60;;;4.70;;
40322;SDS011;26030;51.164;17.100;2023-07-13T04:03:45;6.20;;;4.90;;
40322;SDS011;26030;51.164;17.100;2023-07-13T04:08:53;7.80;;;4.80;;
40322;SDS011;26030;51.164;17.100;2023-07-13T04:13:57;4.80;;;4.30;;
40322;SDS011;26030;51.164;17.100;2023-07-13T04:19:02;5.90;;;4.90;;
40322;SDS011;26030;51.164;17.100;2023-07-13T04:24:06;5.00;;;4.50;;
40322;SDS011;26030;51.164;17.100;2023-07-13T04:29:13;6.40;;;4.80;;
40322;SDS011;26030;51.164;17.100;2023-07-13T04:34:17;5.40;;;4.70;;
40322;SDS011;26030;51.164;17.100;2023-07-13T04:39:21;5.10;;;4.50;;
40322;SDS011;26030;51.164;17.100;2023-07-13T04:44:26;6.30;;;4.00;;
40322;SDS011;26030;51.164;17.100;2023-07-13T04:49:30;8.80;;;3.80;;
40322;SDS011;26030;51.164;17.100;2023-07-13T04:54:34;6.90;;;3.00;;
40322;SDS011;26030;51.164;17.100;2023-07-13T04:59:39;6.30;;;3.00;;
40322;SDS011;26030;51.164;17.100;2023-07-13T05:04:46;4.70;;;3.20;;
40322;SDS011;26030;51.164;17.100;2023-07-13T05:09:51;2.90;;;2.40;;
40322;SDS011;26030;51.164;17.100;2023-07-13T05:14:56;11.50;;;2.90;;
40322;SDS011;26030;51.164;17.100;2023-07-13T05:20:00;5.00;;;2.40;;
40322;SDS011;26030;51.164;17.100;2023-07-13T05:25:06;7.80;;;2.20;;
40322;SDS011;26030;51.164;17.100;2023-07-13T05:30:10;2.30;;;2.10;;
40322;SDS011;26030;51.164;17.100;2023-07-13T05:35:16;6.60;;;2.40;;
40322;SDS011;26030;51.164;17.100;2023-07-13T05:40:20;2.10;;;1.90;;
40322;SDS011;26030;51.164;17.100;2023-07-13T05:45:24;4.30;;;1.90;;
40322;SDS011;26030;51.164;17.100;2023-07-13T05:50:30;3.30;;;1.70;;
40322;SDS011;26030;51.164;17.100;2023-07-13T05:55:34;3.10;;;1.90;;
40322;SDS011;26030;51.164;17.100;2023-07-13T06:00:39;2.80;;;2.00;;
40322;SDS011;26030;51.164;17.100;2023-07-13T06:05:43;4.10;;;1.70;;
40322;SDS011;26030;51.164;17.100;2023-07-13T06:10:47;5.70;;;1.70;;
40322;SDS011;26030;51.164;17.100;2023-07-13T06:15:51;3.30;;;1.90;;
40322;SDS011;26030;51.164;17.100;2023-07-13T06:20:56;2.70;;;1.50;;
40322;SDS011;26030;51.164;17.100;2023-07-13T06:26:01;5.30;;;1.50;;
40322;SDS011;26030;51.164;17.100;2023-07-13T06:31:11;2.00;;;1.80;;
40322;SDS011;26030;51.164;17.100;2023-07-13T06:36:16;3.70;;;1.90;;
40322;SDS011;26030;51.164;17.100;2023-07-13T06:41:20;3.50;;;1.90;;
40322;SDS011;26030;51.164;17.100;2023-07-13T06:46:26;4.90;;;1.50;;
40322;SDS011;26030;51.164;17.100;2023-07-13T06:51:33;3.00;;;1.60;;
40322;SDS011;26030;51.164;17.100;2023-07-13T06:56:37;3.00;;;1.90;;
40322;SDS011;26030;51.164;17.100;2023-07-13T07:01:41;5.30;;;2.00;;
40322;SDS011;26030;51.164;17.100;2023-07-13T07:06:45;3.80;;;1.80;;
40322;SDS011;26030;51.164;17.100;2023-07-13T07:11:50;5.20;;;2.00;;
40322;SDS011;26030;51.164;17.100;2023-07-13T07:17:06;5.00;;;2.00;;
40322;SDS011;26030;51.164;17.100;2023-07-13T07:22:10;9.00;;;2.40;;
40322;SDS011;26030;51.164;17.100;2023-07-13T07:27:14;4.60;;;2.20;;
40322;SDS011;26030;51.164;17.100;2023-07-13T07:32:21;4.70;;;2.10;;
40322;SDS011;26030;51.164;17.100;2023-07-13T07:37:28;4.00;;;2.20;;
40322;SDS011;26030;51.164;17.100;2023-07-13T07:42:35;11.30;;;2.40;;
40322;SDS011;26030;51.164;17.100;2023-07-13T07:47:39;6.10;;;2.40;;
40322;SDS011;26030;51.164;17.100;2023-07-13T07:52:44;4.30;;;2.30;;
40322;SDS011;26030;51.164;17.100;2023-07-13T07:57:48;3.40;;;2.20;;
40322;SDS011;26030;51.164;17.100;2023-07-13T08:02:55;6.90;;;2.40;;
40322;SDS011;26030;51.164;17.100;2023-07-13T08:08:20;5.30;;;2.10;;
40322;SDS011;26030;51.164;17.100;2023-07-13T08:13:24;3.50;;;2.20;;
40322;SDS011;26030;51.164;17.100;2023-07-13T08:18:28;6.40;;;2.40;;
40322;SDS011;26030;51.164;17.100;2023-07-13T08:23:32;3.10;;;2.20;;
40322;SDS011;26030;51.164;17.100;2023-07-13T08:28:36;5.20;;;2.30;;
40322;SDS011;26030;51.164;17.100;2023-07-13T08:33:40;2.90;;;2.30;;
40322;SDS011;26030;51.164;17.100;2023-07-13T08:38:45;3.80;;;2.30;;
40322;SDS011;26030;51.164;17.100;2023-07-13T08:43:52;2.60;;;2.10;;
40322;SDS011;26030;51.164;17.100;2023-07-13T08:49:02;2.00;;;1.80;;
40322;SDS011;26030;51.164;17.100;2023-07-13T08:54:26;2.50;;;2.30;;
40322;SDS011;26030;51.164;17.100;2023-07-13T08:59:32;7.90;;;2.40;;
40322;SDS011;26030;51.164;17.100;2023-07-13T09:05:01;3.60;;;2.30;;
40322;SDS011;26030;51.164;17.100;2023-07-13T09:20:37;6.10;;;2.60;;
40322;SDS011;26030;51.164;17.100;2023-07-13T09:25:45;2.60;;;2.40;;
40322;SDS011;26030;51.164;17.100;2023-07-13T09:31:00;2.80;;;2.50;;
40322;SDS011;26030;51.164;17.100;2023-07-13T09:36:21;2.60;;;2.40;;
40322;SDS011;26030;51.164;17.100;2023-07-13T09:41:41;4.80;;;2.80;;
40322;SDS011;26030;51.164;17.100;2023-07-13T09:46:54;4.50;;;2.30;;
40322;SDS011;26030;51.164;17.100;2023-07-13T09:52:10;3.00;;;2.30;;
40322;SDS011;26030;51.164;17.100;2023-07-13T09:57:17;3.70;;;2.40;;
40322;SDS011;26030;51.164;17.100;2023-07-13T10:02:27;4.60;;;2.80;;
40322;SDS011;26030;51.164;17.100;2023-07-13T10:07:38;3.50;;;2.20;;
40322;SDS011;26030;51.164;17.100;2023-07-13T10:12:44;3.80;;;2.30;;
40322;SDS011;26030;51.164;17.100;2023-07-13T10:17:50;7.60;;;2.40;;
40322;SDS011;26030;51.164;17.100;2023-07-13T10:23:07;2.40;;;2.10;;
40322;SDS011;26030;51.164;17.100;2023-07-13T10:28:30;4.20;;;2.40;;
40322;SDS011;26030;51.164;17.100;2023-07-13T10:33:35;3.60;;;2.20;;
40322;SDS011;26030;51.164;17.100;2023-07-13T10:38:40;4.20;;;2.10;;
40322;SDS011;26030;51.164;17.100;2023-07-13T10:43:51;3.60;;;2.10;;
40322;SDS011;26030;51.164;17.100;2023-07-13T10:49:05;3.80;;;2.00;;
40322;SDS011;26030;51.164;17.100;2023-07-13T10:54:16;3.90;;;2.30;;
40322;SDS011;26030;51.164;17.100;2023-07-13T10:59:26;3.10;;;2.10;;
40322;SDS011;26030;51.164;17.100;2023-07-13T11:04:52;4.70;;;2.10;;
40322;SDS011;26030;51.164;17.100;2023-07-13T11:10:04;5.30;;;2.00;;
40322;SDS011;26030;51.164;17.100;2023-07-13T11:15:12;3.40;;;1.90;;
40322;SDS011;26030;51.164;17.100;2023-07-13T11:35:36;4.70;;;2.00;;
40322;SDS011;26030;51.164;17.100;2023-07-13T11:40:44;3.20;;;1.80;;
40322;SDS011;26030;51.164;17.100;2023-07-13T11:45:56;2.30;;;1.90;;
40322;SDS011;26030;51.164;17.100;2023-07-13T11:51:04;3.60;;;1.90;;
40322;SDS011;26030;51.164;17.100;2023-07-13T11:56:09;2.90;;;1.50;;
40322;SDS011;26030;51.164;17.100;2023-07-13T12:01:18;3.50;;;1.90;;
40322;SDS011;26030;51.164;17.100;2023-07-13T12:06:30;2.60;;;1.80;;
40322;SDS011;26030;51.164;17.100;2023-07-13T12:11:35;2.90;;;1.80;;
40322;SDS011;26030;51.164;17.100;2023-07-13T12:16:45;2.40;;;1.80;;
40322;SDS011;26030;51.164;17.100;2023-07-13T12:21:53;4.30;;;2.30;;
40322;SDS011;26030;51.164;17.100;2023-07-13T12:27:03;3.20;;;1.70;;
40322;SDS011;26030;51.164;17.100;2023-07-13T12:32:17;3.90;;;1.60;;
40322;SDS011;26030;51.164;17.100;2023-07-13T12:37:23;2.60;;;1.70;;
40322;SDS011;26030;51.164;17.100;2023-07-13T12:42:28;4.50;;;2.00;;
40322;SDS011;26030;51.164;17.100;2023-07-13T12:47:40;3.10;;;1.70;;
40322;SDS011;26030;51.164;17.100;2023-07-13T12:53:00;2.60;;;1.70;;
40322;SDS011;26030;51.164;17.100;2023-07-13T12:58:14;3.60;;;1.90;;
40322;SDS011;26030;51.164;17.100;2023-07-13T13:03:38;3.90;;;1.60;;
40322;SDS011;26030;51.164;17.100;2023-07-13T13:08:43;3.40;;;1.60;;
40322;SDS011;26030;51.164;17.100;2023-07-13T13:13:48;1.90;;;1.70;;
40322;SDS011;26030;51.164;17.100;2023-07-13T13:18:54;2.70;;;1.60;;
40322;SDS011;26030;51.164;17.100;2023-07-13T13:24:00;1.60;;;1.50;;
40322;SDS011;26030;51.164;17.100;2023-07-13T13:29:13;3.00;;;1.60;;
40322;SDS011;26030;51.164;17.100;2023-07-13T13:34:18;1.90;;;1.50;;
40322;SDS011;26030;51.164;17.100;2023-07-13T13:39:26;2.20;;;1.50;;
40322;SDS011;26030;51.164;17.100;2023-07-13T13:44:31;3.40;;;1.70;;
40322;SDS011;26030;51.164;17.100;2023-07-13T13:49:35;3.60;;;2.30;;
40322;SDS011;26030;51.164;17.100;2023-07-13T13:54:40;3.60;;;1.80;;
40322;SDS011;26030;51.164;17.100;2023-07-13T13:59:47;1.50;;;1.40;;
40322;SDS011;26030;51.164;17.100;2023-07-13T14:05:00;1.60;;;1.50;;
40322;SDS011;26030;51.164;17.100;2023-07-13T14:10:12;2.40;;;1.50;;
40322;SDS011;26030;51.164;17.100;2023-07-13T14:15:24;1.90;;;1.50;;
40322;SDS011;26030;51.164;17.100;2023-07-13T14:20:29;2.70;;;1.70;;
40322;SDS011;26030;51.164;17.100;2023-07-13T14:25:33;3.30;;;1.70;;
40322;SDS011;26030;51.164;17.100;2023-07-13T14:30:38;1.50;;;1.40;;
40322;SDS011;26030;51.164;17.100;2023-07-13T14:35:42;1.60;;;1.50;;
40322;SDS011;26030;51.164;17.100;2023-07-13T14:40:48;4.40;;;2.10;;
40322;SDS011;26030;51.164;17.100;2023-07-13T14:45:56;1.70;;;1.50;;
40322;SDS011;26030;51.164;17.100;2023-07-13T14:51:01;3.20;;;1.70;;
40322;SDS011;26030;51.164;17.100;2023-07-13T14:56:11;4.10;;;1.60;;
40322;SDS011;26030;51.164;17.100;2023-07-13T15:01:16;1.70;;;1.30;;
40322;SDS011;26030;51.164;17.100;2023-07-13T15:06:21;2.80;;;1.50;;
40322;SDS011;26030;51.164;17.100;2023-07-13T15:11:27;1.50;;;1.40;;
40322;SDS011;26030;51.164;17.100;2023-07-13T15:16:32;1.70;;;1.60;;
40322;SDS011;26030;51.164;17.100;2023-07-13T15:21:39;1.90;;;1.40;;
40322;SDS011;26030;51.164;17.100;2023-07-13T15:26:43;3.10;;;1.30;;
40322;SDS011;26030;51.164;17.100;2023-07-13T15:31:50;2.70;;;1.60;;
40322;SDS011;26030;51.164;17.100;2023-07-13T15:36:55;2.20;;;1.60;;
40322;SDS011;26030;51.164;17.100;2023-07-13T15:42:01;1.70;;;1.50;;
40322;SDS011;26030;51.164;17.100;2023-07-13T15:47:12;1.90;;;1.30;;
40322;SDS011;26030;51.164;17.100;2023-07-13T15:52:22;2.10;;;1.90;;
40322;SDS011;26030;51.164;17.100;2023-07-13T15:57:27;2.60;;;1.70;;
40322;SDS011;26030;51.164;17.100;2023-07-13T16:02:32;3.70;;;1.20;;
40322;SDS011;26030;51.164;17.100;2023-07-13T16:07:36;2.10;;;1.60;;
40322;SDS011;26030;51.164;17.100;2023-07-13T16:12:41;2.30;;;1.40;;
40322;SDS011;26030;51.164;17.100;2023-07-13T16:17:46;2.10;;;1.90;;
40322;SDS011;26030;51.164;17.100;2023-07-13T16:22:53;1.70;;;1.60;;
40322;SDS011;26030;51.164;17.100;2023-07-13T16:27:59;1.80;;;1.70;;
40322;SDS011;26030;51.164;17.100;2023-07-13T16:33:06;2.40;;;1.60;;
40322;SDS011;26030;51.164;17.100;2023-07-13T16:38:18;1.60;;;1.50;;
40322;SDS011;26030;51.164;17.100;2023-07-13T16:43:23;1.60;;;1.50;;
40322;SDS011;26030;51.164;17.100;2023-07-13T16:48:28;2.00;;;1.50;;
40322;SDS011;26030;51.164;17.100;2023-07-13T16:53:34;4.50;;;1.30;;
40322;SDS011;26030;51.164;17.100;2023-07-13T16:58:38;3.10;;;1.40;;
40322;SDS011;26030;51.164;17.100;2023-07-13T17:03:45;2.90;;;2.00;;
40322;SDS011;26030;51.164;17.100;2023-07-13T17:08:50;3.50;;;1.50;;
40322;SDS011;26030;51.164;17.100;2023-07-13T17:13:58;3.80;;;2.00;;
40322;SDS011;26030;51.164;17.100;2023-07-13T17:19:07;10.40;;;2.30;;
40322;SDS011;26030;51.164;17.100;2023-07-13T17:24:20;6.40;;;2.10;;
40322;SDS011;26030;51.164;17.100;2023-07-13T17:29:24;10.90;;;2.20;;
40322;SDS011;26030;51.164;17.100;2023-07-13T17:34:29;6.20;;;2.20;;
40322;SDS011;26030;51.164;17.100;2023-07-13T17:39:35;4.50;;;2.00;;
40322;SDS011;26030;51.164;17.100;2023-07-13T17:44:40;3.10;;;1.70;;
40322;SDS011;26030;51.164;17.100;2023-07-13T17:49:46;10.50;;;2.00;;
40322;SDS011;26030;51.164;17.100;2023-07-13T17:54:51;4.80;;;2.00;;
40322;SDS011;26030;51.164;17.100;2023-07-13T17:59:56;9.70;;;2.20;;
40322;SDS011;26030;51.164;17.100;2023-07-13T18:05:04;8.50;;;2.40;;
40322;SDS011;26030;51.164;17.100;2023-07-13T18:10:14;4.90;;;2.10;;
40322;SDS011;26030;51.164;17.100;2023-07-13T18:15:23;6.00;;;2.00;;
40322;SDS011;26030;51.164;17.100;2023-07-13T18:20:31;4.40;;;2.10;;
40322;SDS011;26030;51.164;17.100;2023-07-13T18:25:37;3.00;;;2.10;;
40322;SDS011;26030;51.164;17.100;2023-07-13T18:30:46;6.30;;;2.50;;
40322;SDS011;26030;51.164;17.100;2023-07-13T18:35:56;9.50;;;3.00;;
40322;SDS011;26030;51.164;17.100;2023-07-13T18:41:03;6.00;;;2.90;;
40322;SDS011;26030;51.164;17.100;2023-07-13T18:46:31;3.70;;;2.70;;
40322;SDS011;26030;51.164;17.100;2023-07-13T18:51:38;5.20;;;3.20;;
40322;SDS011;26030;51.164;17.100;2023-07-13T18:56:42;5.60;;;3.60;;
40322;SDS011;26030;51.164;17.100;2023-07-13T19:01:50;5.10;;;3.50;;
40322;SDS011;26030;51.164;17.100;2023-07-13T19:06:57;4.20;;;3.40;;
40322;SDS011;26030;51.164;17.100;2023-07-13T19:12:02;5.00;;;3.00;;
40322;SDS011;26030;51.164;17.100;2023-07-13T19:17:09;5.10;;;2.70;;
40322;SDS011;26030;51.164;17.100;2023-07-13T19:22:18;4.50;;;2.60;;
40322;SDS011;26030;51.164;17.100;2023-07-13T19:27:24;7.70;;;2.70;;
40322;SDS011;26030;51.164;17.100;2023-07-13T19:32:31;3.70;;;2.40;;
40322;SDS011;26030;51.164;17.100;2023-07-13T19:37:38;3.90;;;2.40;;
40322;SDS011;26030;51.164;17.100;2023-07-13T19:42:43;3.80;;;2.70;;
40322;SDS011;26030;51.164;17.100;2023-07-13T19:47:50;4.80;;;2.70;;
40322;SDS011;26030;51.164;17.100;2023-07-13T19:52:56;6.00;;;2.90;;
40322;SDS011;26030;51.164;17.100;2023-07-13T19:58:02;5.00;;;2.90;;
40322;SDS011;26030;51.164;17.100;2023-07-13T20:03:09;3.10;;;2.30;;
40322;SDS011;26030;51.164;17.100;2023-07-13T20:08:18;2.70;;;2.20;;
40322;SDS011;26030;51.164;17.100;2023-07-13T20:13:27;4.40;;;2.50;;
40322;SDS011;26030;51.164;17.100;2023-07-13T20:18:45;2.90;;;2.20;;
40322;SDS011;26030;51.164;17.100;2023-07-13T20:23:51;2.80;;;2.50;;
40322;SDS011;26030;51.164;17.100;2023-07-13T20:28:56;4.70;;;2.50;;
40322;SDS011;26030;51.164;17.100;2023-07-13T20:34:02;4.70;;;2.60;;
40322;SDS011;26030;51.164;17.100;2023-07-13T20:39:10;3.90;;;2.30;;
40322;SDS011;26030;51.164;17.100;2023-07-13T20:44:14;3.00;;;2.10;;
40322;SDS011;26030;51.164;17.100;2023-07-13T20:49:19;2.80;;;2.20;;
40322;SDS011;26030;51.164;17.100;2023-07-13T20:54:26;5.00;;;2.10;;
40322;SDS011;26030;51.164;17.100;2023-07-13T20:59:32;2.90;;;2.20;;
40322;SDS011;26030;51.164;17.100;2023-07-13T21:04:36;6.60;;;2.30;;
40322;SDS011;26030;51.164;17.100;2023-07-13T21:09:41;5.40;;;1.70;;
40322;SDS011;26030;51.164;17.100;2023-07-13T21:14:45;2.60;;;2.00;;
40322;SDS011;26030;51.164;17.100;2023-07-13T21:19:50;5.10;;;2.10;;
40322;SDS011;26030;51.164;17.100;2023-07-13T21:24:55;2.50;;;1.90;;
40322;SDS011;26030;51.164;17.100;2023-07-13T21:29:59;2.40;;;2.20;;
40322;SDS011;26030;51.164;17.100;2023-07-13T21:35:04;4.00;;;1.80;;
40322;SDS011;26030;51.164;17.100;2023-07-13T21:40:17;3.70;;;1.70;;
40322;SDS011;26030;51.164;17.100;2023-07-13T21:45:24;2.90;;;2.00;;
40322;SDS011;26030;51.164;17.100;2023-07-13T21:50:35;2.30;;;2.10;;
40322;SDS011;26030;51.164;17.100;2023-07-13T21:55:40;3.50;;;1.90;;
40322;SDS011;26030;51.164;17.100;2023-07-13T22:00:44;5.30;;;2.00;;
40322;SDS011;26030;51.164;17.100;2023-07-13T22:05:51;6.00;;;2.10;;
40322;SDS011;26030;51.164;17.100;2023-07-13T22:10:55;2.60;;;2.30;;
40322;SDS011;26030;51.164;17.100;2023-07-13T22:16:03;3.70;;;2.00;;
40322;SDS011;26030;51.164;17.100;2023-07-13T22:21:08;3.40;;;1.70;;
40322;SDS011;26030;51.164;17.100;2023-07-13T22:26:29;2.70;;;2.10;;
40322;SDS011;26030;51.164;17.100;2023-07-13T22:31:35;4.40;;;2.40;;
40322;SDS011;26030;51.164;17.100;2023-07-13T22:36:40;11.10;;;2.40;;
40322;SDS011;26030;51.164;17.100;2023-07-13T22:41:45;3.90;;;1.90;;
40322;SDS011;26030;51.164;17.100;2023-07-13T22:46:50;2.30;;;2.00;;
40322;SDS011;26030;51.164;17.100;2023-07-13T22:52:01;2.90;;;1.90;;
40322;SDS011;26030;51.164;17.100;2023-07-13T22:57:07;6.60;;;1.80;;
40322;SDS011;26030;51.164;17.100;2023-07-13T23:02:16;5.60;;;2.40;;
40322;SDS011;26030;51.164;17.100;2023-07-13T23:07:21;6.10;;;2.30;;
40322;SDS011;26030;51.164;17.100;2023-07-13T23:12:28;5.60;;;1.90;;
40322;SDS011;26030;51.164;17.100;2023-07-13T23:17:34;4.40;;;2.10;;
40322;SDS011;26030;51.164;17.100;2023-07-13T23:22:39;5.70;;;2.30;;
40322;SDS011;26030;51.164;17.100;2023-07-13T23:27:44;5.90;;;1.60;;
40322;SDS011;26030;51.164;17.100;2023-07-13T23:32:48;3.90;;;1.90;;
40322;SDS011;26030;51.164;17.100;2023-07-13T23:37:52;3.40;;;1.90;;
40322;SDS011;26030;51.164;17.100;2023-07-13T23:42:56;2.60;;;1.70;;
40322;SDS011;26030;51.164;17.100;2023-07-13T23:48:01;4.50;;;1.60;;
40322;SDS011;26030;51.164;17.100;2023-07-13T23:53:12;2.20;;;2.10;;
40322;SDS011;26030;51.164;17.100;2023-07-13T23:58:17;1.90;;;1.80;;
